Time;durP1;ratioP1;P1;durP2;ratioP2;P2;SDS_P1;SDS_P2;PMS_P1;PMS_P2;Temp;Humidity;BMP_temperature;BMP_pressure;BME280_temperature;BME280_humidity;BME280_pressure;Samples;Min_cycle;Max_cycle;Signal;HPM_P1;HPM_P2
2023/01/28 00:01:48;;;;;;;7.03;1.43;;;;;;;0.18;90.08;102276.50;6151019;28;20040;-69
2023/01/28 00:04:43;;;;;;;1.93;0.80;;;;;;;0.20;89.87;102277.28;6148761;28;20032;-68
2023/01/28 00:07:39;;;;;;;1.85;0.90;;;;;;;0.15;89.46;102284.41;6148995;28;20110;-71
2023/01/28 00:10:36;;;;;;;1.27;0.70;;;;;;;0.26;90.20;102274.53;6148920;28;20036;-69
2023/01/28 00:13:32;;;;;;;2.45;0.90;;;;;;;0.06;91.56;102266.38;6148499;28;20487;-71
2023/01/28 00:16:27;;;;;;;3.40;1.27;;;;;;;0.10;90.95;102275.84;6149307;28;20036;-71
2023/01/28 00:19:22;;;;;;;2.63;0.93;;;;;;;0.00;90.51;102270.88;6148525;28;20494;-69
2023/01/28 00:22:18;;;;;;;3.47;0.90;;;;;;;0.05;91.53;102281.19;6148849;28;20028;-70
2023/01/28 00:25:14;;;;;;;1.45;0.85;;;;;;;0.12;90.54;102274.91;6160577;28;20028;-70
2023/01/28 00:28:09;;;;;;;2.17;0.65;;;;;;;0.14;90.86;102280.06;6149213;28;20472;-69
2023/01/28 00:31:10;;;;;;;2.60;1.20;;;;;;;0.05;90.54;102277.72;6148960;28;20032;-71
2023/01/28 00:34:05;;;;;;;1.20;0.55;;;;;;;0.10;90.71;102276.72;6152828;28;20288;-70
2023/01/28 00:37:00;;;;;;;0.87;0.57;;;;;;;-0.02;90.63;102280.47;6148639;28;20122;-72
2023/01/28 00:39:55;;;;;;;0.80;0.60;;;;;;;-0.03;91.07;102270.94;6148487;28;20024;-70
2023/01/28 00:42:51;;;;;;;2.77;0.60;;;;;;;0.02;91.71;102288.22;6147878;28;20028;-69
2023/01/28 00:45:46;;;;;;;2.23;0.60;;;;;;;-0.04;91.63;102284.91;6147622;28;20032;-71
2023/01/28 00:48:42;;;;;;;1.17;0.50;;;;;;;-0.03;91.62;102267.50;6148468;28;20058;-71
2023/01/28 00:51:37;;;;;;;5.07;0.60;;;;;;;0.00;91.24;102281.28;6147757;28;20269;-69
2023/01/28 00:54:35;;;;;;;2.45;0.60;;;;;;;0.07;90.94;102291.56;6146203;28;20028;-70
2023/01/28 00:57:30;;;;;;;0.98;0.40;;;;;;;0.05;91.76;102289.00;6148076;28;20044;-71
2023/01/28 01:00:26;;;;;;;0.80;0.30;;;;;;;-0.03;91.65;102283.97;6148067;28;20376;-70
2023/01/28 01:03:21;;;;;;;0.73;0.30;;;;;;;0.04;92.36;102296.84;6145777;28;20114;-72
2023/01/28 01:06:16;;;;;;;0.73;0.50;;;;;;;-0.10;91.95;102282.44;6136308;28;20032;-71
2023/01/28 01:09:12;;;;;;;1.63;0.60;;;;;;;-0.07;92.59;102286.72;6147573;28;20071;-71
2023/01/28 01:12:07;;;;;;;0.55;0.30;;;;;;;-0.07;92.69;102295.41;6132080;28;20072;-70
2023/01/28 01:15:07;;;;;;;1.13;0.60;;;;;;;0.20;93.20;102303.38;6147281;28;20028;-70
2023/01/28 01:18:02;;;;;;;5.15;0.85;;;;;;;0.09;92.56;102292.38;6147958;28;20032;-70
2023/01/28 01:20:58;;;;;;;1.67;0.60;;;;;;;0.03;91.92;102282.13;6147443;28;20036;-71
2023/01/28 01:23:53;;;;;;;1.50;0.60;;;;;;;-0.05;92.53;102282.31;6156532;28;20032;-72
2023/01/28 01:26:49;;;;;;;1.60;0.53;;;;;;;0.09;93.05;102289.75;6147619;28;20032;-71
2023/01/28 01:29:44;;;;;;;2.72;0.50;;;;;;;-0.01;92.10;102277.00;6147150;28;20031;-70
2023/01/28 01:32:39;;;;;;;2.67;0.57;;;;;;;0.09;92.44;102289.75;6147414;28;20099;-72
2023/01/28 01:35:34;;;;;;;4.43;0.97;;;;;;;0.04;92.06;102276.00;6146801;28;20038;-71
2023/01/28 01:38:30;;;;;;;1.17;0.47;;;;;;;0.09;91.89;102274.13;6147354;28;20040;-72
2023/01/28 01:41:30;;;;;;;3.50;0.97;;;;;;;0.07;92.40;102273.31;6147173;28;20094;-70
2023/01/28 01:44:57;;;;;;;1.80;0.68;;;;;;;0.08;92.22;102288.06;6140816;28;20699;-70
2023/01/28 01:48:05;;;;;;;2.80;0.57;;;;;;;0.21;92.64;102294.66;6135238;28;20360;-70
2023/01/28 01:51:03;;;;;;;4.78;0.73;;;;;;;0.23;92.18;102290.25;6146788;28;20032;-70
2023/01/28 01:53:59;;;;;;;2.47;0.43;;;;;;;0.16;92.33;102286.13;6128359;28;20471;-72
2023/01/28 01:56:55;;;;;;;3.88;0.80;;;;;;;0.06;91.34;102284.63;6147296;28;20047;-71
2023/01/28 01:59:50;;;;;;;0.75;0.40;;;;;;;0.29;90.87;102295.31;6147110;28;20047;-72
2023/01/28 02:02:47;;;;;;;2.83;0.70;;;;;;;0.22;89.68;102296.38;6145287;28;20046;-70
2023/01/28 02:05:42;;;;;;;2.83;0.50;;;;;;;0.14;89.66;102298.31;6146722;28;20258;-70
2023/01/28 02:08:38;;;;;;;1.65;1.13;;;;;;;0.12;89.86;102297.50;6128393;28;20543;-72
2023/01/28 02:11:33;;;;;;;1.90;0.70;;;;;;;0.24;89.82;102312.84;6146612;28;20036;-70
2023/01/28 02:14:31;;;;;;;0.82;0.45;;;;;;;0.16;89.33;102299.16;6127774;28;20764;-69
2023/01/28 02:17:26;;;;;;;0.85;0.40;;;;;;;0.18;87.74;102299.97;6146219;28;20482;-72
2023/01/28 02:20:25;;;;;;;0.17;0.17;;;;;;;0.29;87.90;102308.34;6127279;28;20059;-70
2023/01/28 02:23:29;;;;;;;1.85;0.40;;;;;;;0.18;88.24;102305.19;6155305;28;20471;-71
2023/01/28 02:26:36;;;;;;;1.02;0.50;;;;;;;0.16;87.00;102301.75;6128781;28;20085;-70
2023/01/28 02:29:43;;;;;;;0.82;0.35;;;;;;;0.23;87.74;102311.13;6146125;28;20036;-72
2023/01/28 02:33:00;;;;;;;0.98;0.57;;;;;;;0.16;87.35;102304.38;6126368;28;20377;-72
2023/01/28 02:35:55;;;;;;;1.27;0.40;;;;;;;0.07;87.18;102307.22;6128133;28;20032;-70
2023/01/28 02:38:52;;;;;;;1.77;0.35;;;;;;;0.08;87.00;102296.75;6127450;28;20036;-72
2023/01/28 02:42:03;;;;;;;2.03;0.40;;;;;;;0.09;86.45;102301.06;6145525;28;20035;-71
2023/01/28 02:44:58;;;;;;;0.73;0.45;;;;;;;-0.06;86.46;102265.84;6125949;28;20028;-70
2023/01/28 02:47:57;;;;;;;3.53;0.50;;;;;;;0.13;86.38;102296.63;6127286;28;20051;-71
2023/01/28 02:51:06;;;;;;;0.85;0.68;;;;;;;0.19;87.15;102275.59;6127614;28;20047;-72
2023/01/28 02:54:20;;;;;;;2.40;0.40;;;;;;;0.12;87.51;102285.34;6124531;28;20051;-72
2023/01/28 02:57:55;;;;;;;1.85;0.40;;;;;;;0.35;87.71;102279.50;6145568;28;20036;-69
2023/01/28 03:01:24;;;;;;;1.17;0.43;;;;;;;0.31;86.79;102302.19;6126462;28;20757;-72
2023/01/28 03:04:26;;;;;;;3.78;1.55;;;;;;;0.00;85.78;102265.66;6137273;28;20048;-71
2023/01/28 03:07:22;;;;;;;1.55;0.52;;;;;;;0.14;85.33;102286.13;6114046;28;20032;-72
2023/01/28 03:10:20;;;;;;;2.72;0.55;;;;;;;0.17;86.45;102291.28;6127911;28;20054;-70
2023/01/28 03:39:12;;;;;;;0.75;0.30;;;;;;;0.15;85.70;102287.88;6144557;28;20399;-70
2023/01/28 03:42:10;;;;;;;2.80;0.80;;;;;;;0.21;86.61;102289.44;6144026;28;20024;-71
2023/01/28 03:45:06;;;;;;;1.27;0.52;;;;;;;0.15;86.89;102300.91;6145337;28;20036;-70
2023/01/28 03:48:02;;;;;;;0.65;0.40;;;;;;;0.04;86.04;102283.81;6156033;28;20042;-70
2023/01/28 03:51:00;;;;;;;2.57;0.63;;;;;;;0.11;87.57;102288.00;6127261;28;20036;-72
2023/01/28 03:53:55;;;;;;;1.38;0.90;;;;;;;0.04;85.92;102294.25;6141222;28;20402;-71
2023/01/28 03:56:50;;;;;;;2.43;0.70;;;;;;;0.10;81.50;102281.91;6144868;28;20066;-72
2023/01/28 03:59:48;;;;;;;1.83;0.50;;;;;;;0.10;81.85;102273.22;6144722;28;20107;-70
2023/01/28 04:02:43;;;;;;;3.00;0.70;;;;;;;0.21;82.35;102273.81;6126229;28;20391;-72
2023/01/28 04:05:39;;;;;;;0.60;0.50;;;;;;;0.11;82.02;102286.22;6150693;28;20023;-73
2023/01/28 04:08:34;;;;;;;2.47;0.60;;;;;;;0.08;83.13;102295.91;6146862;28;20035;-70
2023/01/28 04:11:29;;;;;;;0.97;0.50;;;;;;;0.04;82.56;102294.25;6146789;28;20071;-70
2023/01/28 04:14:25;;;;;;;1.40;0.50;;;;;;;0.08;83.07;102290.69;6147899;28;20038;-71
2023/01/28 04:17:20;;;;;;;1.17;0.57;;;;;;;0.04;82.93;102300.31;6160026;28;20036;-71
2023/01/28 04:20:16;;;;;;;2.23;0.63;;;;;;;0.16;83.34;102312.19;6152297;28;20368;-72
2023/01/28 04:23:12;;;;;;;0.85;0.43;;;;;;;0.17;82.60;102311.28;6147805;28;20032;-72
2023/01/28 04:26:07;;;;;;;0.77;0.60;;;;;;;0.21;82.85;102299.88;6149427;28;20541;-71
2023/01/28 04:29:02;;;;;;;2.50;0.70;;;;;;;0.06;81.72;102295.91;6148849;28;20028;-71
2023/01/28 04:31:58;;;;;;;3.03;1.27;;;;;;;0.24;83.28;102303.28;6129456;28;20286;-72
2023/01/28 04:34:53;;;;;;;0.63;0.60;;;;;;;0.17;81.45;102309.53;6157025;28;20029;-71
2023/01/28 04:37:48;;;;;;;0.53;0.27;;;;;;;0.16;80.21;102317.41;6130436;28;20035;-72
2023/01/28 04:40:43;;;;;;;2.27;0.53;;;;;;;0.13;81.80;102322.69;6147976;28;20035;-73
2023/01/28 04:43:39;;;;;;;3.27;0.70;;;;;;;0.13;81.73;102334.00;6151810;28;20041;-72
2023/01/28 04:46:34;;;;;;;0.90;0.40;;;;;;;0.09;81.86;102339.31;6148387;28;20020;-70
2023/01/28 04:49:29;;;;;;;0.40;0.40;;;;;;;0.11;80.50;102333.16;6148394;28;20125;-72
2023/01/28 04:52:25;;;;;;;1.00;0.40;;;;;;;0.00;80.37;102328.22;6146295;28;20028;-71
2023/01/28 04:55:20;;;;;;;1.53;0.57;;;;;;;0.19;82.48;102328.59;6147821;28;20357;-72
2023/01/28 04:58:15;;;;;;;1.67;0.40;;;;;;;0.02;81.53;102319.50;6153073;28;20047;-70
2023/01/28 05:01:10;;;;;;;2.13;0.50;;;;;;;0.09;82.32;102329.75;6148114;28;20138;-72
2023/01/28 05:04:06;;;;;;;1.73;0.60;;;;;;;0.12;82.28;102339.22;6147347;28;20047;-71
2023/01/28 05:07:02;;;;;;;0.82;0.50;;;;;;;0.08;81.87;102324.56;6154848;28;20032;-73
2023/01/28 05:09:57;;;;;;;2.57;0.50;;;;;;;-0.10;82.44;102321.53;6142910;28;20032;-72
2023/01/28 05:12:52;;;;;;;0.40;0.37;;;;;;;0.07;82.63;102334.16;6146457;28;20039;-72
2023/01/28 05:15:52;;;;;;;1.03;0.37;;;;;;;0.01;82.40;102342.13;6130088;28;20036;-71
2023/01/28 05:18:50;;;;;;;1.60;0.60;;;;;;;0.08;82.95;102330.66;6151081;28;20454;-71
2023/01/28 05:21:45;;;;;;;1.92;0.70;;;;;;;0.00;82.45;102338.66;6148560;28;20036;-71
2023/01/28 05:24:40;;;;;;;1.77;0.53;;;;;;;-0.11;83.20;102338.06;6146062;28;20039;-72
2023/01/28 05:27:36;;;;;;;5.67;0.70;;;;;;;-0.16;83.46;102326.91;6156505;28;20028;-70
2023/01/28 05:30:31;;;;;;;0.90;0.43;;;;;;;-0.09;84.04;102327.63;6146710;28;20545;-72
2023/01/28 05:33:26;;;;;;;1.47;0.50;;;;;;;-0.10;83.05;102318.06;6146864;28;20043;-73
2023/01/28 05:36:21;;;;;;;2.13;0.60;;;;;;;-0.16;82.78;102326.91;6155000;28;20119;-72
2023/01/28 05:39:17;;;;;;;1.10;0.53;;;;;;;-0.13;82.44;102331.19;6144689;28;20530;-71
2023/01/28 05:42:14;;;;;;;2.97;0.65;;;;;;;-0.11;82.23;102329.41;6133909;28;20036;-70
2023/01/28 05:45:09;;;;;;;1.35;0.50;;;;;;;-0.18;81.36;102320.88;6157290;28;20063;-72
2023/01/28 05:48:05;;;;;;;1.45;0.88;;;;;;;-0.18;79.53;102326.09;6147262;28;20039;-71
2023/01/28 05:51:00;;;;;;;5.47;1.07;;;;;;;-0.23;80.28;102309.72;6146420;28;20028;-72
2023/01/28 05:53:56;;;;;;;0.85;0.35;;;;;;;-0.11;79.52;102329.41;6145626;28;20266;-70
2023/01/28 05:56:51;;;;;;;0.70;0.50;;;;;;;-0.09;79.87;102332.81;6150148;28;20047;-70
2023/01/28 05:59:46;;;;;;;2.75;0.93;;;;;;;-0.08;79.81;102321.50;6146872;28;20028;-71
2023/01/28 06:02:42;;;;;;;0.63;0.40;;;;;;;-0.24;79.69;102313.19;6148270;28;20391;-72
2023/01/28 06:05:37;;;;;;;1.15;0.45;;;;;;;-0.03;79.90;102323.09;6146047;28;20063;-70
2023/01/28 06:08:32;;;;;;;1.00;0.60;;;;;;;0.03;80.40;102324.69;6148058;28;20036;-71
2023/01/28 06:11:28;;;;;;;1.90;0.93;;;;;;;0.04;81.77;102329.00;6150766;28;20032;-71
2023/01/28 06:14:23;;;;;;;2.40;1.00;;;;;;;0.03;81.64;102336.88;6145437;28;20040;-71
2023/01/28 06:17:18;;;;;;;2.70;0.90;;;;;;;-0.07;81.02;102331.03;6146267;28;20090;-72
2023/01/28 06:20:15;;;;;;;3.20;0.63;;;;;;;-0.09;82.06;102338.03;6155117;28;20036;-72
2023/01/28 06:23:11;;;;;;;2.90;0.73;;;;;;;-0.20;81.63;102340.06;6144974;28;20112;-72
2023/01/28 06:26:06;;;;;;;0.50;0.43;;;;;;;-0.20;82.38;102348.75;6145938;28;20475;-71
2023/01/28 06:29:01;;;;;;;0.73;0.50;;;;;;;-0.15;83.23;102349.47;6148602;28;20290;-72
2023/01/28 06:31:57;;;;;;;7.63;2.53;;;;;;;-0.13;81.79;102332.03;6153811;28;20386;-73
2023/01/28 06:34:52;;;;;;;2.83;1.33;;;;;;;-0.11;80.00;102335.47;6146021;28;20439;-73
2023/01/28 06:37:47;;;;;;;1.38;0.45;;;;;;;-0.15;78.99;102338.19;6145719;28;20078;-71
2023/01/28 06:40:43;;;;;;;1.33;0.60;;;;;;;-0.11;79.50;102340.66;6145741;28;20031;-71
2023/01/28 06:43:38;;;;;;;1.17;0.70;;;;;;;-0.12;79.29;102349.41;6145063;28;20387;-71
2023/01/28 06:46:33;;;;;;;1.87;0.80;;;;;;;-0.19;80.71;102337.41;6146353;28;20115;-72
2023/01/28 06:49:28;;;;;;;2.33;0.60;;;;;;;-0.23;80.26;102348.81;6128058;28;20055;-73
2023/01/28 06:52:24;;;;;;;1.93;1.30;;;;;;;-0.35;79.77;102340.41;6143234;28;20282;-71
2023/01/28 06:55:19;;;;;;;1.27;0.67;;;;;;;-0.38;79.73;102330.91;6153068;28;20101;-71
2023/01/28 06:58:14;;;;;;;1.97;1.00;;;;;;;-0.36;79.12;102333.50;6146622;28;20036;-72
2023/01/28 07:01:10;;;;;;;6.53;2.47;;;;;;;0.00;81.86;102341.25;6145684;28;20024;-72
2023/01/28 07:04:06;;;;;;;13.07;3.60;;;;;;;-0.19;80.98;102340.00;6147421;28;20032;-72
2023/01/28 07:07:01;;;;;;;9.07;2.45;;;;;;;-0.20;81.23;102345.28;6146244;28;20111;-73
2023/01/28 07:09:56;;;;;;;1.80;1.13;;;;;;;-0.23;81.22;102345.34;6149605;28;20040;-73
2023/01/28 07:12:52;;;;;;;4.03;0.98;;;;;;;-0.27;80.70;102354.97;6150334;28;20043;-70
2023/01/28 07:15:48;;;;;;;5.43;2.60;;;;;;;-0.07;83.41;102347.53;6145007;28;20046;-71
2023/01/28 07:18:43;;;;;;;2.00;0.93;;;;;;;-0.10;81.58;102354.56;6115511;28;20031;-70
2023/01/28 07:21:39;;;;;;;2.87;0.97;;;;;;;-0.17;79.08;102351.28;6144412;28;20036;-72
2023/01/28 07:24:34;;;;;;;2.00;0.80;;;;;;;-0.10;78.30;102337.19;6153455;28;20506;-72
2023/01/28 07:27:29;;;;;;;2.87;0.73;;;;;;;0.04;79.89;102342.03;6145286;28;20031;-71
2023/01/28 07:30:25;;;;;;;1.77;0.73;;;;;;;-0.06;79.17;102346.66;6143529;28;20077;-71
2023/01/28 07:33:20;;;;;;;3.08;0.70;;;;;;;-0.05;78.25;102361.38;6145810;28;20051;-73
2023/01/28 07:36:16;;;;;;;7.88;1.90;;;;;;;0.04;80.34;102352.47;6158215;28;20035;-73
2023/01/28 07:39:11;;;;;;;2.03;0.90;;;;;;;-0.07;76.73;102352.75;6144225;28;20028;-73
2023/01/28 07:42:06;;;;;;;1.30;0.80;;;;;;;-0.18;76.56;102357.38;6124848;28;20040;-71
2023/01/28 07:45:03;;;;;;;6.03;1.00;;;;;;;-0.23;77.10;102346.19;6141980;28;20672;-71
2023/01/28 07:48:06;;;;;;;0.90;0.60;;;;;;;-0.12;77.29;102365.03;6143844;28;20020;-72
2023/01/28 07:51:02;;;;;;;1.42;0.73;;;;;;;-0.16;77.88;102354.72;6145567;28;20023;-72
2023/01/28 07:53:57;;;;;;;1.33;0.80;;;;;;;-0.22;78.24;102363.53;6147187;28;20089;-71
2023/01/28 07:56:52;;;;;;;2.70;0.90;;;;;;;-0.26;78.29;102358.44;6148461;28;20282;-72
2023/01/28 07:59:49;;;;;;;4.95;1.00;;;;;;;-0.30;77.47;102359.44;6149626;28;20035;-73
2023/01/28 08:02:46;;;;;;;2.03;0.70;;;;;;;-0.04;78.32;102372.66;6148744;28;20511;-72
2023/01/28 08:05:46;;;;;;;1.17;0.80;;;;;;;-0.05;76.27;102370.94;6148893;28;20046;-70
2023/01/28 08:08:41;;;;;;;2.15;0.73;;;;;;;-0.07;76.74;102376.22;6130274;28;20066;-71
2023/01/28 08:11:37;;;;;;;2.57;0.70;;;;;;;0.16;78.94;102380.00;6158008;28;20464;-71
2023/01/28 08:14:33;;;;;;;3.15;0.90;;;;;;;0.23;81.04;102378.94;6148541;28;20390;-70
2023/01/28 08:17:28;;;;;;;0.53;0.47;;;;;;;-0.02;79.53;102374.34;6148894;28;20032;-72
2023/01/28 08:20:27;;;;;;;0.87;0.60;;;;;;;-0.10;81.02;102360.63;6152312;28;20042;-72
2023/01/28 08:23:22;;;;;;;2.45;0.63;;;;;;;0.06;82.10;102395.00;6155408;28;20041;-71
2023/01/28 08:26:18;;;;;;;0.80;0.57;;;;;;;0.09;82.08;102396.69;6150723;28;20494;-70
2023/01/28 08:29:13;;;;;;;2.33;0.63;;;;;;;0.09;81.63;102400.16;6147411;28;20032;-72
2023/01/28 08:32:09;;;;;;;1.73;0.80;;;;;;;0.20;80.45;102405.09;6147018;28;20451;-72
2023/01/28 08:35:06;;;;;;;1.83;0.80;;;;;;;0.27;81.12;102407.50;6150146;28;20128;-71
2023/01/28 08:38:03;;;;;;;1.73;0.80;;;;;;;0.14;79.69;102400.88;6085533;28;20535;-70
2023/01/28 08:40:58;;;;;;;1.25;0.80;;;;;;;0.18;76.79;102409.50;6076724;28;20595;-70
2023/01/28 08:43:54;;;;;;;4.53;0.85;;;;;;;0.21;76.22;102419.84;6069132;28;20029;-72
2023/01/28 08:46:49;;;;;;;2.57;0.80;;;;;;;0.29;76.40;102403.13;6075138;28;20025;-71
2023/01/28 08:49:44;;;;;;;2.77;1.10;;;;;;;0.23;76.09;102407.63;6070015;28;20530;-72
2023/01/28 08:52:40;;;;;;;1.93;0.90;;;;;;;0.35;75.30;102417.75;6055687;28;20037;-70
2023/01/28 08:55:36;;;;;;;1.15;0.90;;;;;;;0.22;75.08;102398.09;6066901;28;20499;-71
2023/01/28 08:58:31;;;;;;;3.60;0.87;;;;;;;0.21;74.72;102419.84;6073738;28;20079;-71
2023/01/28 09:01:28;;;;;;;2.83;0.90;;;;;;;0.35;75.23;102444.72;6075204;28;20037;-70
2023/01/28 09:04:23;;;;;;;2.65;1.10;;;;;;;0.42;74.58;102427.13;6071485;28;20033;-71
2023/01/28 09:07:19;;;;;;;1.60;0.70;;;;;;;0.52;74.33;102445.13;6075088;28;20037;-71
2023/01/28 09:10:15;;;;;;;1.73;0.90;;;;;;;0.78;74.55;102405.28;6077684;28;20025;-69
2023/01/28 09:13:14;;;;;;;1.48;0.95;;;;;;;0.92;72.96;102439.72;6074739;28;20536;-72
2023/01/28 09:16:09;;;;;;;19.23;8.98;;;;;;;0.99;72.30;102427.31;6074832;28;20477;-70
2023/01/28 09:19:04;;;;;;;5.13;1.07;;;;;;;0.92;70.33;102431.88;6074706;28;20087;-70
2023/01/28 09:21:59;;;;;;;4.97;1.47;;;;;;;0.95;70.32;102442.22;6077176;28;20032;-71
2023/01/28 09:24:55;;;;;;;2.43;0.80;;;;;;;0.97;70.84;102450.03;6057203;28;20042;-70
2023/01/28 09:27:50;;;;;;;1.30;0.80;;;;;;;1.04;71.13;102444.56;6076027;28;20480;-69
2023/01/28 09:30:45;;;;;;;2.60;1.07;;;;;;;1.06;71.44;102461.06;6075196;28;20072;-71
2023/01/28 09:33:41;;;;;;;2.93;1.10;;;;;;;1.10;72.55;102477.50;6071428;28;20052;-69
2023/01/28 09:36:36;;;;;;;3.03;0.90;;;;;;;0.94;70.93;102477.06;6075425;28;20485;-72
2023/01/28 09:39:32;;;;;;;3.03;1.02;;;;;;;0.66;72.07;102480.44;6075131;28;20104;-71
2023/01/28 09:42:49;;;;;;;2.27;0.93;;;;;;;0.80;73.59;102487.03;6075023;28;20035;-71
2023/01/28 09:45:48;;;;;;;2.80;0.80;;;;;;;0.63;73.68;102478.75;6075048;28;20291;-70
2023/01/28 09:48:46;;;;;;;1.25;0.70;;;;;;;0.50;74.17;102475.63;6075027;28;20038;-71
2023/01/28 09:51:46;;;;;;;2.22;1.05;;;;;;;0.60;74.24;102491.88;6073462;28;20050;-71
2023/01/28 09:54:54;;;;;;;3.00;1.02;;;;;;;0.49;75.04;102483.50;6074021;28;20045;-70
2023/01/28 09:57:52;;;;;;;3.90;1.00;;;;;;;0.43;75.26;102486.25;6073612;28;20047;-69
2023/01/28 10:01:20;;;;;;;3.83;1.30;;;;;;;0.58;74.62;102496.28;6071388;28;20042;-72
2023/01/28 10:04:25;;;;;;;1.90;1.08;;;;;;;0.55;74.19;102492.00;6069562;28;20049;-69
2023/01/28 10:07:37;;;;;;;2.15;1.05;;;;;;;0.73;75.29;102500.28;6057470;28;20057;-71
2023/01/28 10:10:48;;;;;;;2.67;0.85;;;;;;;0.70;75.19;102480.34;6056188;28;20049;-69
2023/01/28 10:14:23;;;;;;;1.25;0.80;;;;;;;0.70;74.30;102479.47;6074050;28;20044;-71
2023/01/28 10:17:25;;;;;;;2.55;1.10;;;;;;;0.60;74.96;102486.66;6063587;28;20373;-72
2023/01/28 10:20:25;;;;;;;2.42;0.95;;;;;;;0.43;75.23;102486.25;6074745;28;20048;-70
2023/01/28 10:23:54;;;;;;;4.53;0.95;;;;;;;0.42;75.94;102482.78;6073305;28;20057;-71
2023/01/28 10:26:49;;;;;;;2.05;0.90;;;;;;;0.30;76.38;102456.97;6074751;28;20041;-69
2023/01/28 10:29:48;;;;;;;4.17;1.10;;;;;;;0.37;76.52;102462.91;6073308;28;20033;-69
2023/01/28 10:33:04;;;;;;;5.32;1.30;;;;;;;0.41;76.98;102477.59;6072132;28;20376;-71
2023/01/28 10:35:59;;;;;;;2.30;1.02;;;;;;;0.42;76.11;102466.28;6072890;28;20474;-69
2023/01/28 10:38:55;;;;;;;1.10;0.80;;;;;;;0.25;77.99;102452.78;6074061;28;20041;-70
2023/01/28 10:41:50;;;;;;;1.83;0.90;;;;;;;0.12;76.12;102446.16;6073144;28;20348;-70
2023/01/28 10:44:46;;;;;;;2.72;0.95;;;;;;;0.40;76.66;102465.47;6073593;28;20041;-71
2023/01/28 10:47:47;;;;;;;2.33;1.00;;;;;;;0.48;76.98;102450.47;6072659;28;20037;-70
2023/01/28 10:51:00;;;;;;;2.03;1.00;;;;;;;0.57;77.09;102466.72;6073730;28;20128;-69
2023/01/28 10:53:55;;;;;;;2.20;0.80;;;;;;;0.45;77.02;102458.38;6066475;28;20033;-69
2023/01/28 10:56:54;;;;;;;1.10;0.70;;;;;;;0.49;76.62;102457.41;6074095;28;20036;-71
2023/01/28 10:59:50;;;;;;;2.83;1.13;;;;;;;0.50;76.79;102464.31;6072180;28;20303;-71
2023/01/28 11:02:47;;;;;;;1.77;1.10;;;;;;;0.39;75.55;102464.59;6072998;28;20030;-70
2023/01/28 11:05:50;;;;;;;4.75;1.20;;;;;;;0.46;76.78;102473.13;6055938;28;20358;-70
2023/01/28 11:08:45;;;;;;;2.53;1.25;;;;;;;0.48;76.45;102450.47;6073368;28;20477;-71
2023/01/28 11:11:40;;;;;;;2.27;1.23;;;;;;;0.39;76.70;102456.78;6071158;28;20044;-69
2023/01/28 11:14:36;;;;;;;4.63;1.57;;;;;;;0.35;77.15;102457.75;6072769;28;20033;-71
2023/01/28 11:17:33;;;;;;;1.48;0.90;;;;;;;0.35;76.38;102459.50;6073103;28;20574;-70
2023/01/28 11:20:35;;;;;;;4.03;1.48;;;;;;;0.36;76.36;102482.06;6072377;28;20036;-70
2023/01/28 11:23:32;;;;;;;;;;;;;;;0.37;75.79;102486.41;6071003;28;20041;-69
2023/01/28 11:26:31;;;;;;;2.70;1.02;;;;;;;0.37;74.28;102484.66;6056017;28;19912;-71
2023/01/28 11:29:30;;;;;;;4.00;1.10;;;;;;;0.32;75.91;102465.66;6072997;28;20053;-70
2023/01/28 11:32:25;;;;;;;2.20;1.10;;;;;;;0.38;74.46;102469.88;6071347;28;20042;-70
2023/01/28 11:35:29;;;;;;;5.80;2.40;;;;;;;0.47;73.73;102461.78;6073420;28;20042;-71
2023/01/28 11:38:24;;;;;;;1.95;1.27;;;;;;;0.46;74.93;102447.03;6072984;28;20033;-70
2023/01/28 11:41:34;;;;;;;4.78;1.90;;;;;;;0.54;75.78;102461.59;6072769;28;20474;-71
2023/01/28 11:44:29;;;;;;;7.05;2.00;;;;;;;0.68;75.28;102452.56;6072407;28;20041;-70
2023/01/28 11:47:42;;;;;;;3.90;1.70;;;;;;;0.51;73.63;102445.16;6055443;28;20111;-70
2023/01/28 11:50:43;;;;;;;2.42;1.20;;;;;;;0.77;74.18;102452.31;6054864;28;20116;-72
2023/01/28 11:54:08;;;;;;;2.63;1.50;;;;;;;0.57;72.38;102460.69;6078191;28;20116;-71
2023/01/28 11:57:12;;;;;;;4.28;1.42;;;;;;;0.69;74.67;102444.69;6057281;28;20037;-71
2023/01/28 12:00:22;;;;;;;2.40;1.27;;;;;;;0.56;74.31;102419.81;6064600;28;20034;-71
2023/01/28 12:03:28;;;;;;;5.85;1.80;;;;;;;0.54;74.25;102409.38;6050294;28;20064;-71
2023/01/28 12:06:50;;;;;;;2.33;1.45;;;;;;;0.76;72.76;102425.34;6069331;28;20033;-72
2023/01/28 12:09:59;;;;;;;3.00;1.30;;;;;;;0.77;71.91;102427.06;6068176;28;20029;-71
2023/01/28 12:13:15;;;;;;;2.65;1.50;;;;;;;0.89;72.49;102416.28;6072317;28;20504;-70
2023/01/28 12:16:32;;;;;;;4.28;2.20;;;;;;;0.73;71.46;102409.78;6065907;28;20045;-71
2023/01/28 12:19:41;;;;;;;5.97;2.90;;;;;;;0.62;71.74;102417.03;6072569;28;20075;-72
2023/01/28 12:22:58;;;;;;;3.95;1.75;;;;;;;0.62;72.67;102414.44;6068235;28;20048;-68
2023/01/28 12:26:15;;;;;;;4.72;1.90;;;;;;;0.71;72.32;102406.34;6047606;28;20040;-70
2023/01/28 12:29:33;;;;;;;4.10;2.00;;;;;;;0.77;72.77;102394.88;6055010;28;20780;-69
2023/01/28 12:32:47;;;;;;;6.75;2.08;;;;;;;0.99;70.61;102399.47;6054262;28;20480;-72
2023/01/28 12:35:52;;;;;;;2.83;1.70;;;;;;;1.02;70.69;102390.69;6056849;28;20041;-69
2023/01/28 12:39:20;;;;;;;4.18;1.70;;;;;;;1.02;69.02;102360.19;6076481;28;20034;-71
2023/01/28 12:42:22;;;;;;;4.68;1.65;;;;;;;0.85;68.39;102344.16;6075093;28;20065;-71
2023/01/28 12:45:21;;;;;;;4.47;2.20;;;;;;;0.43;70.89;102343.63;6076658;28;20025;-70
2023/01/28 12:48:23;;;;;;;4.05;1.95;;;;;;;0.49;71.09;102321.72;6058806;28;20112;-70
2023/01/28 12:51:26;;;;;;;;;;;;;;;0.47;70.46;102310.44;6076810;28;20069;-69
2023/01/28 12:54:27;;;;;;;3.25;1.85;;;;;;;0.33;72.30;102299.53;6058331;28;19913;-70
2023/01/28 12:57:26;;;;;;;4.78;1.98;;;;;;;0.61;71.04;102300.47;6076079;28;20030;-69
2023/01/28 13:00:32;;;;;;;3.97;2.00;;;;;;;0.39;71.85;102295.00;6076224;28;20051;-70
2023/01/28 13:03:54;;;;;;;4.50;1.75;;;;;;;0.12;72.54;102277.50;6074195;28;20103;-70
2023/01/28 13:06:55;;;;;;;2.88;1.38;;;;;;;0.43;72.64;102291.44;6058731;28;20037;-69
2023/01/28 13:10:03;;;;;;;3.42;1.75;;;;;;;0.38;71.92;102250.72;6075639;28;20175;-71
2023/01/28 13:12:59;;;;;;;3.10;1.70;;;;;;;0.67;70.96;102289.88;6075734;28;20032;-69
2023/01/28 13:15:54;;;;;;;3.13;1.42;;;;;;;0.69;71.21;102306.34;6075612;28;20038;-69
2023/01/28 13:18:49;;;;;;;2.83;1.58;;;;;;;0.76;71.91;102307.03;6058466;28;20396;-71
2023/01/28 13:21:46;;;;;;;4.10;1.90;;;;;;;0.54;72.50;102315.44;6075854;28;20033;-71
2023/01/28 13:24:41;;;;;;;3.35;1.65;;;;;;;0.47;72.78;102298.25;6085820;28;20032;-69
2023/01/28 13:27:37;;;;;;;11.07;4.20;;;;;;;0.34;73.67;102293.44;6081722;28;20385;-71
2023/01/28 13:30:34;;;;;;;3.47;1.83;;;;;;;0.15;73.85;102294.81;6075419;28;20082;-71
2023/01/28 13:33:35;;;;;;;4.00;1.80;;;;;;;0.18;74.86;102321.69;6073840;28;20037;-70
2023/01/28 13:36:43;;;;;;;6.40;2.08;;;;;;;0.20;75.06;102316.41;6075393;28;20120;-71
2023/01/28 13:39:38;;;;;;;3.88;2.20;;;;;;;0.14;75.42;102313.97;6057765;28;20116;-70
2023/01/28 13:42:34;;;;;;;7.75;2.20;;;;;;;0.20;76.04;102360.75;6073058;28;20041;-69
2023/01/28 13:45:29;;;;;;;5.53;2.05;;;;;;;0.19;75.93;102353.84;6056938;28;20033;-70
2023/01/28 13:48:31;;;;;;;4.38;2.00;;;;;;;0.15;74.99;102357.41;6057419;28;20048;-70
2023/01/28 13:51:30;;;;;;;4.15;1.90;;;;;;;0.11;76.25;102342.75;6074923;28;20041;-70
2023/01/28 13:54:27;;;;;;;3.70;1.52;;;;;;;0.27;75.36;102362.31;6074661;28;20499;-71
2023/01/28 13:57:43;;;;;;;4.30;1.92;;;;;;;0.20;75.24;102347.72;6057222;28;20500;-70
2023/01/28 14:00:53;;;;;;;4.70;1.92;;;;;;;0.27;74.85;102331.84;6075074;28;20033;-70
2023/01/28 14:03:55;;;;;;;4.10;1.88;;;;;;;0.32;75.93;102366.53;6056375;28;20041;-70
2023/01/28 14:07:13;;;;;;;9.55;2.22;;;;;;;0.22;76.63;102367.63;6074871;28;20041;-69
2023/01/28 14:10:49;;;;;;;5.45;2.30;;;;;;;0.11;76.82;102351.41;6053584;28;20679;-69
2023/01/28 14:14:03;;;;;;;4.55;2.30;;;;;;;0.07;76.41;102356.75;6061470;28;20112;-70
2023/01/28 14:17:23;;;;;;;3.45;1.55;;;;;;;-0.04;77.42;102357.88;6074626;28;20485;-70
2023/01/28 14:20:30;;;;;;;3.38;1.70;;;;;;;-0.14;77.51;102342.53;6062168;28;20037;-70
2023/01/28 14:23:29;;;;;;;6.45;2.47;;;;;;;-0.24;77.59;102349.69;6074095;28;20037;-70
2023/01/28 14:26:49;;;;;;;6.20;2.38;;;;;;;-0.29;77.99;102335.91;6072998;28;20429;-69
2023/01/28 14:29:59;;;;;;;7.13;2.38;;;;;;;-0.33;78.46;102338.66;6055245;28;20056;-70